Time;durP1;ratioP1;P1;durP2;ratioP2;P2;SDS_P1;SDS_P2;PMS_P1;PMS_P2;Temp;Humidity;BMP_temperature;BMP_pressure;BME280_temperature;BME280_humidity;BME280_pressure;Samples;Min_cycle;Max_cycle;Signal;HPM_P1;HPM_P2
2021/04/15 00:01:44;;;;;;;4.95;2.97;;;5.00;99.90;;;;;;3540771;40;20039;-84
2021/04/15 00:04:29;;;;;;;7.60;3.55;;;4.80;99.90;;;;;;3534144;40;20051;-86
2021/04/15 00:07:10;;;;;;;8.13;3.50;;;4.90;99.90;;;;;;3533037;40;20036;-86
2021/04/15 00:09:40;;;;;;;7.78;3.10;;;4.90;99.90;;;;;;3535690;40;20088;-83
2021/04/15 00:12:12;;;;;;;8.85;3.38;;;4.80;99.90;;;;;;3528439;40;20037;-84
2021/04/15 00:14:43;;;;;;;7.75;3.58;;;4.80;99.90;;;;;;3525352;40;20063;-86
2021/04/15 00:17:11;;;;;;;6.95;2.88;;;4.80;99.90;;;;;;3541000;40;20039;-83
2021/04/15 00:19:42;;;;;;;6.15;3.70;;;4.70;99.90;;;;;;3525363;40;20036;-83
2021/04/15 00:22:12;;;;;;;6.38;3.20;;;4.70;99.90;;;;;;3540505;40;20035;-85
2021/04/15 00:24:43;;;;;;;6.22;3.55;;;4.70;99.90;;;;;;3530714;40;20041;-87
2021/04/15 00:27:11;;;;;;;7.55;3.50;;;4.70;99.90;;;;;;3534836;40;20036;-83
2021/04/15 00:29:51;;;;;;;6.25;3.25;;;4.60;99.90;;;;;;3540972;40;20039;-86
2021/04/15 00:32:21;;;;;;;;;;;4.70;99.90;;;;;;3525067;40;20057;-88
2021/04/15 00:34:54;;;;;;;10.40;3.72;;;4.70;99.90;;;;;;3535711;40;19945;-89
2021/04/15 00:37:30;;;;;;;5.60;3.33;;;4.80;99.90;;;;;;3538952;40;20046;-89
2021/04/15 00:40:02;;;;;;;7.07;3.20;;;4.60;99.90;;;;;;3537124;40;20054;-87
2021/04/15 00:42:31;;;;;;;6.80;3.20;;;4.50;99.90;;;;;;3535449;40;20039;-83
2021/04/15 00:45:21;;;;;;;8.45;3.92;;;4.60;99.90;;;;;;3540307;40;20426;-84
2021/04/15 00:47:55;;;;;;;5.53;3.40;;;4.70;99.90;;;;;;3534428;40;20042;-86
2021/04/15 00:50:35;;;;;;;6.63;3.33;;;4.80;99.90;;;;;;3542683;40;20027;-85
2021/04/15 00:53:20;;;;;;;7.43;3.63;;;4.90;99.90;;;;;;3527974;40;20042;-87
2021/04/15 00:55:51;;;;;;;6.22;3.40;;;4.90;99.90;;;;;;3531151;40;20031;-87
2021/04/15 00:58:22;;;;;;;8.55;4.00;;;4.90;99.90;;;;;;3542657;40;20035;-85
2021/04/15 01:00:52;;;;;;;7.50;3.92;;;4.90;99.90;;;;;;3537297;40;20039;-89
2021/04/15 01:03:22;;;;;;;6.00;3.38;;;4.90;99.90;;;;;;3526739;40;20032;-85
2021/04/15 01:06:00;;;;;;;8.05;4.00;;;5.00;99.90;;;;;;3531552;40;20054;-87
2021/04/15 01:08:32;;;;;;;11.48;4.07;;;4.90;99.90;;;;;;3540725;40;20043;-85
2021/04/15 01:11:14;;;;;;;6.65;3.40;;;4.80;99.90;;;;;;3533967;40;20055;-87
2021/04/15 01:14:02;;;;;;;6.85;3.85;;;4.80;99.90;;;;;;3531231;40;20036;-88
2021/04/15 01:16:45;;;;;;;8.88;3.45;;;4.80;99.90;;;;;;3522558;40;20056;-84
2021/04/15 01:20:08;;;;;;;9.65;3.67;;;4.80;99.90;;;;;;3538789;40;20046;-83
2021/04/15 01:23:02;;;;;;;7.05;3.67;;;5.00;99.90;;;;;;3528643;40;20059;-83
2021/04/15 01:26:00;;;;;;;9.80;4.22;;;4.90;99.90;;;;;;3525447;40;20058;-85
2021/04/15 01:31:40;;;;;;;5.30;3.25;;;4.80;99.90;;;;;;4206876;23;20066;-85
2021/04/15 01:34:16;;;;;;;6.68;3.63;;;4.70;99.90;;;;;;3554027;40;20018;-83
2021/04/15 01:36:50;;;;;;;6.88;3.70;;;4.70;99.90;;;;;;3553372;40;20030;-84
2021/04/15 01:39:29;;;;;;;8.52;3.80;;;4.60;99.90;;;;;;3554282;40;20056;-85
2021/04/15 01:42:11;;;;;;;6.28;3.72;;;4.60;99.90;;;;;;3554858;40;20058;-84
2021/04/15 01:44:47;;;;;;;6.00;3.58;;;4.60;99.90;;;;;;3551975;40;20030;-82
2021/04/15 01:47:21;;;;;;;6.60;3.80;;;4.60;99.90;;;;;;3553760;40;20054;-84
2021/04/15 01:49:58;;;;;;;7.90;4.10;;;4.70;99.90;;;;;;3553519;40;20034;-83
2021/04/15 01:52:41;;;;;;;8.48;4.07;;;4.70;99.90;;;;;;3559215;40;20068;-84
2021/04/15 01:55:22;;;;;;;5.28;3.35;;;4.60;99.90;;;;;;3557027;40;20038;-83
2021/04/15 01:58:10;;;;;;;8.63;3.88;;;4.50;99.90;;;;;;3552584;40;20038;-82
2021/04/15 02:00:41;;;;;;;7.30;3.97;;;4.50;99.90;;;;;;3560035;40;20038;-83
2021/04/15 02:03:17;;;;;;;4.88;3.40;;;4.50;99.90;;;;;;3545264;40;20042;-83
2021/04/15 02:05:51;;;;;;;6.20;3.42;;;4.60;99.90;;;;;;3550729;40;20034;-83
2021/04/15 02:08:24;;;;;;;5.88;3.47;;;4.50;99.90;;;;;;3552512;40;20041;-82
2021/04/15 02:10:59;;;;;;;6.63;3.67;;;4.40;99.90;;;;;;3553084;40;20030;-83
2021/04/15 02:13:33;;;;;;;8.65;3.92;;;4.40;99.90;;;;;;3553306;40;20046;-83
2021/04/15 02:16:21;;;;;;;7.45;3.83;;;4.40;99.90;;;;;;3547352;40;20053;-82
2021/04/15 02:19:00;;;;;;;10.73;4.15;;;4.30;99.90;;;;;;3551998;40;20030;-82
2021/04/15 02:21:40;;;;;;;7.00;3.78;;;4.30;99.90;;;;;;3554062;40;20037;-85
2021/04/15 02:24:19;;;;;;;7.10;4.25;;;4.10;99.90;;;;;;3547864;40;20030;-85
2021/04/15 02:26:53;;;;;;;10.80;3.88;;;4.10;99.90;;;;;;3554811;40;20046;-83
2021/04/15 02:29:25;;;;;;;8.05;3.95;;;4.00;99.90;;;;;;3562303;40;20030;-82
2021/04/15 02:32:02;;;;;;;7.22;3.67;;;4.00;99.90;;;;;;3560091;40;20041;-84
2021/04/15 02:34:38;;;;;;;7.05;3.53;;;3.90;99.90;;;;;;3566693;40;20037;-82
2021/04/15 02:37:21;;;;;;;8.18;4.00;;;3.90;99.90;;;;;;3566247;40;20045;-83
2021/04/15 02:39:59;;;;;;;10.82;4.55;;;3.80;99.90;;;;;;3536684;40;20067;-84
2021/04/15 02:42:35;;;;;;;9.85;5.10;;;3.70;99.90;;;;;;3554971;40;20031;-83
2021/04/15 02:45:21;;;;;;;6.60;3.80;;;3.70;99.90;;;;;;3555137;40;20049;-84
2021/04/15 02:48:01;;;;;;;7.75;4.05;;;3.50;99.90;;;;;;3555047;40;20034;-86
2021/04/15 02:50:39;;;;;;;7.88;3.92;;;3.50;99.90;;;;;;3567100;40;20038;-86
2021/04/15 02:53:13;;;;;;;10.85;4.03;;;3.40;99.90;;;;;;3553876;40;20042;-84
2021/04/15 02:55:49;;;;;;;7.00;3.95;;;3.30;99.90;;;;;;3555412;40;20041;-86
2021/04/15 02:58:33;;;;;;;8.43;4.10;;;3.30;99.90;;;;;;3561647;40;20045;-84
2021/04/15 03:01:10;;;;;;;9.63;3.92;;;3.30;99.90;;;;;;3562503;40;20034;-85
2021/04/15 03:03:50;;;;;;;8.87;3.90;;;3.30;99.90;;;;;;3563605;40;20049;-85
2021/04/15 03:06:26;;;;;;;12.30;4.37;;;3.20;99.90;;;;;;3546817;40;20041;-83
2021/04/15 03:09:07;;;;;;;9.68;3.80;;;3.20;99.90;;;;;;3554882;40;20038;-84
2021/04/15 03:11:48;;;;;;;9.98;4.57;;;3.10;99.90;;;;;;3555266;40;20066;-83
2021/04/15 03:14:24;;;;;;;12.70;4.43;;;3.10;99.90;;;;;;3548452;40;20041;-83
2021/04/15 03:17:02;;;;;;;10.07;4.23;;;3.00;99.90;;;;;;3563289;40;20048;-83
2021/04/15 03:19:42;;;;;;;7.27;3.60;;;3.00;99.90;;;;;;3563489;40;20061;-82
2021/04/15 03:22:22;;;;;;;11.53;4.57;;;2.90;99.90;;;;;;3568076;40;20056;-83
2021/04/15 03:24:53;;;;;;;16.63;8.43;;;2.90;99.90;;;;;;3554935;40;20057;-83
2021/04/15 03:27:49;;;;;;;11.17;5.67;;;2.80;99.90;;;;;;3551254;40;20066;-83
2021/04/15 03:30:36;;;;;;;9.10;4.37;;;2.80;99.90;;;;;;3550770;40;20038;-81
2021/04/15 03:33:20;;;;;;;10.80;4.70;;;2.70;99.90;;;;;;3557297;40;20066;-82
2021/04/15 03:36:10;;;;;;;26.47;11.60;;;2.80;99.90;;;;;;3557217;40;20037;-84
2021/04/15 03:38:52;;;;;;;16.37;7.40;;;2.80;99.90;;;;;;3546331;40;20063;-83
2021/04/15 03:41:27;;;;;;;6.87;4.00;;;2.80;99.90;;;;;;3567029;40;20062;-87
2021/04/15 03:44:07;;;;;;;11.77;4.47;;;2.80;99.90;;;;;;3553358;40;20049;-82
2021/04/15 03:46:41;;;;;;;10.03;3.90;;;2.60;99.90;;;;;;3561647;40;20074;-83
2021/04/15 03:49:14;;;;;;;9.83;4.07;;;2.70;99.90;;;;;;3554164;40;20046;-83
2021/04/15 03:52:02;;;;;;;11.20;4.00;;;2.70;99.90;;;;;;3562656;40;20066;-86
2021/04/15 03:54:40;;;;;;;6.68;3.63;;;2.70;99.90;;;;;;3548096;40;20337;-84
2021/04/15 03:57:23;;;;;;;11.10;4.13;;;2.60;99.90;;;;;;3561592;40;20067;-83
2021/04/15 03:59:57;;;;;;;9.47;4.30;;;2.60;99.90;;;;;;3548531;40;20026;-82
2021/04/15 04:02:41;;;;;;;9.97;4.10;;;2.50;99.90;;;;;;3551773;40;20042;-83
2021/04/15 04:05:25;;;;;;;11.05;4.03;;;2.50;99.90;;;;;;3560749;40;20070;-82
2021/04/15 04:08:21;;;;;;;9.17;3.77;;;2.60;99.90;;;;;;3556882;40;20033;-86
2021/04/15 04:11:02;;;;;;;6.77;3.77;;;2.60;99.90;;;;;;3556117;40;20092;-87
2021/04/15 04:13:34;;;;;;;9.00;4.10;;;2.60;99.90;;;;;;3541892;40;20054;-85
2021/04/15 04:16:10;;;;;;;8.93;4.30;;;2.70;99.90;;;;;;3551571;40;20067;-82
2021/04/15 04:18:53;;;;;;;11.57;4.13;;;2.80;99.90;;;;;;3559175;40;20038;-83
2021/04/15 04:21:37;;;;;;;7.80;3.90;;;2.70;99.90;;;;;;3544608;40;20086;-83
2021/04/15 04:24:21;;;;;;;11.33;4.37;;;2.70;99.90;;;;;;3544959;40;20063;-82
2021/04/15 04:26:59;;;;;;;9.57;3.87;;;2.70;99.90;;;;;;3557882;40;20085;-84
2021/04/15 04:29:53;;;;;;;12.57;4.87;;;2.80;99.90;;;;;;3550566;40;20064;-84
2021/04/15 04:32:29;;;;;;;8.43;4.47;;;2.70;99.90;;;;;;3559740;40;20053;-83
2021/04/15 04:35:11;;;;;;;11.20;4.20;;;2.70;99.90;;;;;;3559342;40;20058;-83
2021/04/15 04:37:55;;;;;;;7.93;3.90;;;2.70;99.90;;;;;;3560025;40;20029;-82
2021/04/15 04:40:28;;;;;;;8.47;4.07;;;2.70;99.90;;;;;;3567748;40;20065;-84
2021/04/15 04:43:08;;;;;;;11.73;4.00;;;2.80;99.90;;;;;;3553935;40;20026;-83
2021/04/15 04:45:41;;;;;;;8.57;3.70;;;2.80;99.90;;;;;;3556604;40;20093;-83
2021/04/15 04:48:24;;;;;;;8.10;3.87;;;2.80;99.90;;;;;;3560288;40;20081;-85
2021/04/15 04:51:03;;;;;;;9.73;4.13;;;2.80;99.90;;;;;;3565183;40;20034;-84
2021/04/15 04:53:33;;;;;;;7.20;3.30;;;2.80;99.90;;;;;;3562087;40;20038;-84
2021/04/15 04:56:32;;;;;;;6.07;2.97;;;2.90;99.90;;;;;;3550105;40;20037;-81
2021/04/15 04:59:09;;;;;;;26.83;8.40;;;2.90;99.90;;;;;;3551865;40;20503;-82
2021/04/15 05:08:27;;;;;;;13.37;4.03;;;3.10;99.90;;;;;;3550663;40;20099;-84
2021/04/15 05:11:02;;;;;;;11.93;4.17;;;3.10;99.90;;;;;;3561212;40;20057;-83
2021/04/15 05:14:12;;;;;;;15.43;7.57;;;3.20;99.90;;;;;;3537998;40;20045;-85
2021/04/15 05:17:01;;;;;;;15.63;5.53;;;3.10;99.90;;;;;;3560117;40;20041;-83
2021/04/15 05:22:59;;;;;;;7.73;4.20;;;3.20;99.90;;;;;;3551028;40;20143;-81
2021/04/15 05:26:40;;;;;;;15.17;5.10;;;3.10;99.90;;;;;;3524040;40;20088;-83
2021/04/15 05:30:22;;;;;;;25.33;7.10;;;3.30;99.90;;;;;;3506851;40;20093;-83
2021/04/15 05:36:34;;;;;;;7.87;3.20;;;3.50;99.90;;;;;;3463042;41;20462;-83
2021/04/15 05:39:53;;;;;;;7.57;3.77;;;3.70;99.90;;;;;;3477964;41;20092;-83
2021/04/15 05:43:01;;;;;;;;;;;3.80;99.90;;;;;;3462537;41;20414;-82
2021/04/15 05:53:12;;;;;;;7.83;2.77;;;4.00;99.90;;;;;;3425028;41;20061;-83
2021/04/15 05:55:51;;;;;;;14.47;5.00;;;4.30;99.90;;;;;;3428091;41;20089;-83
2021/04/15 05:58:24;;;;;;;11.25;3.70;;;4.50;99.90;;;;;;3450998;41;20038;-83
2021/04/15 06:01:20;;;;;;;9.57;3.43;;;4.70;99.90;;;;;;3446540;41;20075;-83
2021/04/15 06:04:40;;;;;;;8.13;3.05;;;4.90;99.90;;;;;;3495014;41;20086;-86
2021/04/15 06:14:13;;;;;;;14.97;3.50;;;5.30;99.90;;;;;;3498135;41;20058;-84
2021/04/15 06:21:49;;;;;;;8.38;2.72;;;5.40;99.90;;;;;;3469677;41;20365;-84
2021/04/15 06:25:01;;;;;;;5.72;2.40;;;5.50;99.90;;;;;;3479316;41;20402;-85
2021/04/15 06:35:54;;;;;;;7.53;2.67;;;5.40;99.90;;;;;;3505865;41;20060;-84
2021/04/15 06:38:31;;;;;;;6.47;2.38;;;5.70;99.90;;;;;;3502007;41;20037;-86
2021/04/15 06:41:32;;;;;;;5.60;2.97;;;5.80;99.90;;;;;;3502197;41;20033;-84
2021/04/15 06:44:43;;;;;;;10.80;2.63;;;5.90;99.90;;;;;;3502018;41;20033;-86
2021/04/15 06:47:48;;;;;;;7.50;3.35;;;5.90;99.90;;;;;;3490719;41;20066;-83
2021/04/15 06:50:33;;;;;;;5.25;2.40;;;5.90;99.90;;;;;;3504251;41;20065;-83
2021/04/15 06:53:45;;;;;;;5.47;2.50;;;5.90;99.90;;;;;;3504436;40;20081;-85
2021/04/15 06:56:28;;;;;;;5.38;2.85;;;6.00;99.90;;;;;;3527434;40;20072;-84
2021/04/15 06:59:24;;;;;;;9.13;2.80;;;6.00;99.90;;;;;;3513706;40;20075;-86
2021/04/15 07:02:07;;;;;;;9.07;2.53;;;6.10;99.90;;;;;;3537324;40;20060;-85
2021/04/15 07:04:51;;;;;;;6.70;2.25;;;6.20;99.90;;;;;;3529052;40;20059;-83
2021/04/15 07:07:30;;;;;;;6.28;2.50;;;6.30;99.70;;;;;;3532415;40;20073;-86
2021/04/15 07:10:35;;;;;;;9.60;3.53;;;6.40;99.40;;;;;;3524187;40;20035;-84
2021/04/15 07:13:55;;;;;;;6.40;2.35;;;6.40;99.20;;;;;;3532679;40;20063;-84
2021/04/15 07:20:33;;;;;;;8.90;2.97;;;6.60;98.40;;;;;;3543206;40;20308;-87
2021/04/15 07:26:11;;;;;;;6.25;2.95;;;7.00;98.00;;;;;;3558352;40;20058;-86
2021/04/15 07:32:52;;;;;;;8.50;2.85;;;7.10;98.20;;;;;;3513652;40;20072;-83
2021/04/15 07:35:57;;;;;;;7.88;2.60;;;7.50;97.40;;;;;;3526406;40;20055;-85
2021/04/15 07:39:05;;;;;;;9.82;3.00;;;7.60;95.70;;;;;;3497256;41;20064;-82
2021/04/15 07:42:20;;;;;;;7.35;2.58;;;7.80;94.60;;;;;;3483042;41;20073;-84
2021/04/15 07:45:20;;;;;;;14.63;2.67;;;7.90;94.20;;;;;;3490300;41;20037;-84
2021/04/15 07:48:50;;;;;;;10.52;2.47;;;8.00;93.10;;;;;;3485777;41;20089;-83
2021/04/15 07:52:03;;;;;;;10.02;2.67;;;8.20;92.70;;;;;;3476329;41;20073;-87
2021/04/15 07:55:11;;;;;;;6.30;2.70;;;8.40;92.20;;;;;;3476586;41;20074;-88
2021/04/15 07:58:35;;;;;;;;;;;;;;;;;;;;;
2021/04/15 08:02:04;;;;;;;;;;;;;;;;;;;;;
2021/04/15 08:08:55;;;;;;;7.88;2.78;;;8.10;90.50;;;;;;3540409;40;20031;-86
2021/04/15 10:07:45;;;;;;;6.07;1.75;;;12.20;47.60;;;;;;4185728;23;20064;-85
2021/04/15 10:50:15;;;;;;;2.97;1.38;;;14.10;41.60;;;;;;3530546;40;20062;-88
2021/04/15 10:52:56;;;;;;;5.13;1.35;;;14.60;39.60;;;;;;3527656;40;20047;-89
2021/04/15 10:55:25;;;;;;;3.67;1.25;;;14.90;38.90;;;;;;3518091;41;20036;-87
2021/04/15 10:58:27;;;;;;;1.63;0.85;;;14.80;37.90;;;;;;3530057;40;20036;-88
2021/04/15 11:00:56;;;;;;;3.70;1.20;;;14.80;37.80;;;;;;3529515;40;20115;-86
2021/04/15 11:03:26;;;;;;;3.65;0.90;;;15.10;37.30;;;;;;3533673;40;20043;-85
2021/04/15 11:06:23;;;;;;;4.00;1.10;;;15.10;36.90;;;;;;3517894;40;20043;-85
2021/04/15 11:08:51;;;;;;;;;;;15.30;36.20;;;;;;3520004;40;20036;-85
2021/04/15 11:14:03;;;;;;;1.95;0.90;;;15.60;35.80;;;;;;3534439;40;20059;-88
2021/04/15 11:16:57;;;;;;;6.80;1.30;;;15.80;35.80;;;;;;3522196;40;20039;-88
2021/04/15 11:25:25;;;;;;;3.08;1.27;;;16.00;34.10;;;;;;3551734;40;20050;-84
2021/04/15 11:30:54;;;;;;;5.85;1.00;;;14.60;35.30;;;;;;3666267;23;20072;-84
2021/04/15 11:33:51;;;;;;;1.63;0.88;;;13.60;37.00;;;;;;3525644;40;20044;-86
2021/04/15 11:36:25;;;;;;;7.38;1.25;;;13.50;37.90;;;;;;3504416;41;20040;-84
2021/04/15 11:39:20;;;;;;;3.45;1.52;;;13.70;38.00;;;;;;3504727;40;20040;-87
2021/04/15 11:41:55;;;;;;;3.95;1.73;;;13.80;38.30;;;;;;3507899;40;20035;-87
2021/04/15 11:44:29;;;;;;;3.25;1.30;;;14.10;38.00;;;;;;3565549;23;20054;-86
2021/04/15 11:46:59;;;;;;;5.70;1.55;;;14.30;37.70;;;;;;3601635;23;20063;-88
2021/04/15 11:49:31;;;;;;;7.35;1.40;;;14.70;37.70;;;;;;3529186;40;20146;-82
2021/04/15 11:52:06;;;;;;;4.30;1.15;;;15.20;36.90;;;;;;3532069;40;20410;-88
2021/04/15 11:54:38;;;;;;;10.93;5.82;;;15.80;35.40;;;;;;3529493;40;20043;-86
2021/04/15 11:57:32;;;;;;;3.85;1.52;;;16.50;35.30;;;;;;3520149;40;20283;-86
2021/04/15 12:00:19;;;;;;;4.93;2.00;;;16.20;34.40;;;;;;3526654;40;20386;-86
2021/04/15 12:02:50;;;;;;;7.90;2.17;;;15.30;36.60;;;;;;3527804;40;20291;-85
2021/04/15 12:05:27;;;;;;;4.75;1.38;;;14.80;37.30;;;;;;3531328;40;20042;-84
2021/04/15 12:08:02;;;;;;;3.95;1.30;;;13.70;37.20;;;;;;3533550;40;20083;-83
2021/04/15 12:10:36;;;;;;;4.30;1.92;;;12.50;40.30;;;;;;3530795;40;20062;-81
2021/04/15 12:13:15;;;;;;;9.80;2.40;;;12.00;41.60;;;;;;3530493;40;20063;-84
2021/04/15 12:16:09;;;;;;;3.20;1.38;;;12.00;41.90;;;;;;3535754;40;20066;-82
2021/04/15 12:18:40;;;;;;;19.38;3.42;;;12.10;41.10;;;;;;3528392;40;20088;-82
2021/04/15 12:21:16;;;;;;;10.27;2.78;;;12.90;40.50;;;;;;3531997;40;20071;-83
2021/04/15 12:23:50;;;;;;;5.97;1.35;;;14.00;39.00;;;;;;3527031;40;20082;-85
2021/04/15 12:26:25;;;;;;;3.47;1.15;;;15.10;36.90;;;;;;3534415;40;20082;-87
2021/04/15 12:29:06;;;;;;;5.80;2.13;;;15.60;34.70;;;;;;3533253;40;20078;-84
2021/04/15 12:31:40;;;;;;;4.18;1.50;;;15.60;35.40;;;;;;3533299;40;20071;-86
2021/04/15 12:34:32;;;;;;;4.97;1.20;;;15.40;35.70;;;;;;3524920;40;20430;-85
2021/04/15 12:37:08;;;;;;;4.40;1.77;;;14.90;36.70;;;;;;3534026;40;20169;-85
2021/04/15 12:39:54;;;;;;;6.20;1.70;;;14.30;38.30;;;;;;3536303;40;20072;-85
2021/04/15 12:42:25;;;;;;;;;;;13.90;39.90;;;;;;3535095;40;20287;-84
2021/04/15 12:44:58;;;;;;;3.20;1.15;;;13.30;41.50;;;;;;3542333;40;19942;-85
2021/04/15 12:47:32;;;;;;;4.03;1.52;;;13.10;42.60;;;;;;3532884;40;20311;-88
2021/04/15 12:50:07;;;;;;;5.07;1.60;;;13.30;43.20;;;;;;3535509;40;20124;-83
2021/04/15 12:52:42;;;;;;;2.35;0.95;;;13.80;41.90;;;;;;3525705;40;20042;-84
2021/04/15 12:55:15;;;;;;;6.22;1.40;;;14.10;41.40;;;;;;3531349;40;20061;-85
2021/04/15 12:57:43;;;;;;;4.40;1.70;;;14.40;41.30;;;;;;3523786;40;20050;-86
2021/04/15 13:00:17;;;;;;;2.50;1.25;;;15.10;41.40;;;;;;3526228;40;20280;-86
2021/04/15 13:02:47;;;;;;;5.43;2.17;;;15.70;38.70;;;;;;3522671;40;20075;-88
2021/04/15 13:05:58;;;;;;;2.45;0.98;;;16.10;38.30;;;;;;3513409;40;20090;-83
2021/04/15 13:08:52;;;;;;;4.03;1.40;;;16.70;37.20;;;;;;3529957;40;20080;-87
2021/04/15 13:11:36;;;;;;;7.93;1.48;;;16.70;36.30;;;;;;3528043;40;20067;-88
2021/04/15 13:14:43;;;;;;;4.45;1.20;;;15.90;35.80;;;;;;3529657;40;20075;-83
2021/04/15 13:17:34;;;;;;;5.03;1.30;;;14.40;38.00;;;;;;3530441;40;20051;-83
2021/04/15 13:20:05;;;;;;;5.20;1.45;;;13.60;40.20;;;;;;3531722;40;20035;-84
2021/04/15 13:22:37;;;;;;;1.95;1.00;;;13.00;40.60;;;;;;3518900;40;20046;-87
2021/04/15 13:25:25;;;;;;;3.85;1.10;;;12.80;40.80;;;;;;3527958;40;20079;-83
2021/04/15 13:28:05;;;;;;;2.45;1.00;;;12.50;40.10;;;;;;3533102;40;20063;-84
2021/04/15 13:30:54;;;;;;;3.05;1.40;;;12.20;40.40;;;;;;3527908;40;20083;-83
2021/04/15 13:34:09;;;;;;;1.80;0.90;;;11.80;41.20;;;;;;3527401;40;20088;-82
2021/04/15 13:37:49;;;;;;;5.65;1.00;;;11.60;41.90;;;;;;3527073;40;20055;-85
2021/04/15 13:40:55;;;;;;;9.23;2.22;;;11.50;42.10;;;;;;4860677;23;20022;-85
2021/04/15 13:43:49;;;;;;;2.20;0.80;;;11.50;43.20;;;;;;3503906;40;20050;-84
2021/04/15 14:00:53;;;;;;;2.05;0.93;;;11.90;44.90;;;;;;3660879;23;20060;-85
2021/04/15 14:07:45;;;;;;;2.95;0.95;;;11.50;46.00;;;;;;3526028;40;20035;-85
2021/04/15 14:33:42;;;;;;;10.02;1.13;;;11.50;49.60;;;;;;4882989;23;20044;-85
2021/04/15 14:36:24;;;;;;;3.67;1.30;;;11.70;48.90;;;;;;3516791;40;20056;-85
2021/04/15 14:41:55;;;;;;;4.47;1.23;;;12.20;47.30;;;;;;3516733;40;20027;-84
2021/04/15 14:48:45;;;;;;;2.60;1.10;;;12.00;46.90;;;;;;6016782;23;20015;31
2021/04/15 14:57:22;;;;;;;6.97;1.00;;;10.90;51.30;;;;;;5873449;23;20014;-87
2021/04/15 16:04:05;;;;;;;3.38;1.10;;;9.40;66.40;;;;;;3534938;40;20035;-86
2021/04/15 16:06:55;;;;;;;6.20;1.38;;;9.40;66.50;;;;;;3529485;40;20050;-84
2021/04/15 16:10:01;;;;;;;5.50;2.00;;;9.30;66.90;;;;;;3497009;41;20044;-85
2021/04/15 16:12:39;;;;;;;9.80;2.40;;;9.20;69.10;;;;;;3535203;40;20041;-83
2021/04/15 16:15:38;;;;;;;3.88;1.20;;;9.00;71.30;;;;;;3534572;40;20050;-85
2021/04/15 16:18:45;;;;;;;;;;;;;;;;;;;;;
2021/04/15 16:21:33;;;;;;;3.38;1.13;;;8.80;73.70;;;;;;3526598;40;20039;-83
2021/04/15 16:24:37;;;;;;;2.83;1.10;;;8.60;75.70;;;;;;3532779;40;20039;-82
2021/04/15 16:55:36;;;;;;;1.48;0.70;;;7.70;92.60;;;;;;3549709;40;20099;-84
2021/04/15 16:58:57;;;;;;;2.08;0.98;;;7.70;92.60;;;;;;3550108;40;20042;-85
2021/04/15 17:01:30;;;;;;;4.22;1.70;;;7.50;93.00;;;;;;3534720;40;20054;-85
2021/04/15 17:04:17;;;;;;;11.40;3.42;;;7.40;94.30;;;;;;3534760;40;20055;-84
2021/04/15 17:06:50;;;;;;;3.70;1.50;;;7.40;94.10;;;;;;3542898;40;20031;-86
2021/04/15 17:09:32;;;;;;;3.45;1.30;;;7.30;94.80;;;;;;3531513;40;20039;-86
2021/04/15 17:12:14;;;;;;;2.80;1.20;;;7.40;94.50;;;;;;3536438;40;20027;-86
2021/04/15 17:14:55;;;;;;;4.53;1.20;;;7.30;95.00;;;;;;3530966;40;20083;-85
2021/04/15 17:17:34;;;;;;;;;;;7.30;95.40;;;;;;3514837;41;20043;-83
2021/04/15 17:20:07;;;;;;;2.60;1.35;;;7.30;95.10;;;;;;3492390;41;19951;-85
2021/04/15 17:23:52;;;;;;;4.82;1.20;;;7.30;95.40;;;;;;3484749;41;20057;-84
2021/04/15 17:26:34;;;;;;;2.50;1.00;;;7.30;95.40;;;;;;3475994;41;20050;-87
2021/04/15 17:29:24;;;;;;;4.95;1.20;;;7.20;95.80;;;;;;3481682;41;20066;-86
2021/04/15 17:31:54;;;;;;;2.45;1.10;;;7.10;96.60;;;;;;3482517;41;20171;-89
2021/04/15 17:34:27;;;;;;;10.15;1.90;;;7.00;97.00;;;;;;3492211;41;20041;-84
2021/04/15 17:39:53;;;;;;;3.15;1.20;;;7.00;97.70;;;;;;3491353;41;20062;-86
2021/04/15 17:42:54;;;;;;;;;;;;;;;;;;;;;
2021/04/15 17:49:47;;;;;;;2.63;1.00;;;7.00;97.90;;;;;;3517295;41;20059;-85
2021/04/15 17:52:22;;;;;;;2.10;1.20;;;7.00;98.40;;;;;;3531418;40;20044;-82
2021/04/15 17:54:55;;;;;;;2.65;1.20;;;6.90;99.40;;;;;;3539474;40;20043;-84
2021/04/15 17:57:49;;;;;;;;;;;;;;;;;;;;;
2021/04/15 18:03:32;;;;;;;4.00;1.40;;;6.90;99.90;;;;;;3492871;41;20041;-85
2021/04/15 18:06:13;;;;;;;3.10;1.50;;;6.80;99.90;;;;;;3490211;41;20051;-84
2021/04/15 18:08:58;;;;;;;3.60;1.20;;;6.70;99.90;;;;;;3492127;41;20065;-83
2021/04/15 18:11:44;;;;;;;4.22;1.75;;;6.40;99.90;;;;;;3493731;41;20048;-85
2021/04/15 18:17:35;;;;;;;5.55;1.55;;;6.50;99.90;;;;;;3481719;41;20042;-83
2021/04/15 18:20:05;;;;;;;2.85;1.20;;;6.40;99.90;;;;;;3462505;41;20082;-82
2021/04/15 18:22:56;;;;;;;3.58;1.40;;;6.40;99.90;;;;;;3462437;41;20074;-83
2021/04/15 18:25:53;;;;;;;3.80;1.45;;;6.50;99.90;;;;;;3506980;40;20092;-81
2021/04/15 18:28:36;;;;;;;4.13;1.40;;;6.40;99.90;;;;;;3516685;40;20063;-82
2021/04/15 18:31:24;;;;;;;3.10;1.55;;;6.40;99.90;;;;;;3514868;40;20076;-82
2021/04/15 18:34:06;;;;;;;3.80;2.03;;;6.40;99.90;;;;;;3493440;40;20051;-81
2021/04/15 18:37:13;;;;;;;3.45;1.50;;;6.40;99.90;;;;;;3515380;41;20180;-81
2021/04/15 18:40:24;;;;;;;3.40;1.40;;;6.60;99.90;;;;;;3516264;41;20061;-83
2021/04/15 18:43:04;;;;;;;4.47;1.77;;;6.70;99.90;;;;;;3482133;41;20062;-83
2021/04/15 18:45:37;;;;;;;3.15;1.60;;;6.60;99.90;;;;;;3495937;41;20559;-83
2021/04/15 18:53:59;;;;;;;3.55;1.60;;;6.40;99.90;;;;;;3509036;40;20085;-82
2021/04/15 19:00:03;;;;;;;4.38;1.70;;;6.20;99.90;;;;;;3497673;40;20084;-82
2021/04/15 19:02:37;;;;;;;5.65;1.63;;;6.20;99.90;;;;;;3501705;41;20370;-82
2021/04/15 19:05:50;;;;;;;5.72;2.05;;;6.00;99.90;;;;;;3499007;41;20202;-84
2021/04/15 19:09:05;;;;;;;;;;;;;;;;;;;;;
2021/04/15 19:25:37;;;;;;;;;;;;;;;;;;;;;
2021/04/15 19:28:25;;;;;;;5.53;1.63;;;5.90;99.90;;;;;;3466644;41;20074;-83
2021/04/15 19:31:18;;;;;;;3.40;1.42;;;5.80;99.90;;;;;;3465873;41;20049;-83
2021/04/15 19:34:24;;;;;;;10.45;2.63;;;5.80;99.90;;;;;;3480206;41;20062;-84
2021/04/15 19:37:00;;;;;;;3.78;1.55;;;5.70;99.90;;;;;;3463283;41;20076;-83
2021/04/15 19:39:37;;;;;;;5.85;1.48;;;5.70;99.90;;;;;;3472012;41;20098;-82
2021/04/15 19:42:56;;;;;;;4.18;1.60;;;5.80;99.90;;;;;;3476180;41;20080;-83
2021/04/15 19:45:26;;;;;;;6.15;1.40;;;5.80;99.90;;;;;;3464644;41;20104;-82
2021/04/15 19:48:21;;;;;;;4.57;1.73;;;5.80;99.90;;;;;;3496786;41;20085;-82
2021/04/15 19:51:04;;;;;;;3.90;1.63;;;5.70;99.90;;;;;;3477891;41;20252;-85
2021/04/15 19:53:39;;;;;;;4.25;1.70;;;5.90;99.90;;;;;;3489551;41;20077;-83
2021/04/15 19:56:30;;;;;;;2.28;1.30;;;5.90;99.90;;;;;;3494948;41;20099;-82
2021/04/15 19:59:21;;;;;;;4.65;1.83;;;5.80;99.90;;;;;;3496513;41;20064;-83
2021/04/15 20:01:55;;;;;;;4.80;1.53;;;5.80;99.90;;;;;;3489827;41;20089;-82
2021/04/15 20:04:27;;;;;;;3.97;1.50;;;5.80;99.90;;;;;;3516138;40;20138;-82
2021/04/15 20:07:30;;;;;;;2.83;1.48;;;5.80;99.90;;;;;;3501537;41;20072;-82
2021/04/15 20:10:13;;;;;;;2.97;1.52;;;5.80;99.90;;;;;;3491662;41;20101;-83
2021/04/15 20:13:17;;;;;;;3.40;1.45;;;5.90;99.90;;;;;;3495008;41;20069;-82
2021/04/15 20:16:16;;;;;;;5.78;1.30;;;5.80;99.90;;;;;;3500352;41;20066;-82
2021/04/15 20:19:10;;;;;;;3.35;1.50;;;5.80;99.90;;;;;;3500922;41;20070;-82
2021/04/15 20:21:50;;;;;;;3.87;1.27;;;5.80;99.90;;;;;;3516479;40;20081;-82
2021/04/15 20:24:21;;;;;;;4.82;1.45;;;5.90;99.90;;;;;;3502045;41;20390;-82
2021/04/15 20:27:19;;;;;;;;;;;;;;;;;;;;;
2021/04/15 20:29:56;;;;;;;2.55;1.02;;;6.00;99.90;;;;;;3461705;41;20091;-83
2021/04/15 20:32:51;;;;;;;2.80;1.25;;;6.10;99.90;;;;;;3463934;41;20071;-81
2021/04/15 20:35:25;;;;;;;3.35;1.48;;;6.20;99.90;;;;;;3469379;41;20404;-82
2021/04/15 20:38:26;;;;;;;4.60;1.80;;;6.20;99.90;;;;;;3464470;41;20075;-84
2021/04/15 20:41:04;;;;;;;6.43;1.45;;;6.10;99.90;;;;;;3463533;41;20070;-84
2021/04/15 20:43:46;;;;;;;3.58;1.27;;;6.10;99.90;;;;;;3462671;41;20118;-84
2021/04/15 20:46:56;;;;;;;4.43;1.20;;;6.10;99.90;;;;;;3473290;41;20082;-83
2021/04/15 20:49:25;;;;;;;2.17;1.00;;;6.10;99.60;;;;;;3463746;41;20058;-84
2021/04/15 20:52:44;;;;;;;6.47;1.05;;;6.20;97.10;;;;;;3477869;41;20079;-86
2021/04/15 20:58:58;;;;;;;1.92;0.80;;;6.10;96.10;;;;;;3473453;41;20058;-84
2021/04/15 21:02:06;;;;;;;3.40;1.20;;;6.10;96.50;;;;;;3479961;41;20070;-82
2021/04/15 21:05:06;;;;;;;5.45;1.98;;;6.00;96.80;;;;;;3474360;41;20089;-83
2021/04/15 21:08:00;;;;;;;3.85;1.13;;;6.00;96.90;;;;;;3500388;41;20369;-84
2021/04/15 21:10:38;;;;;;;2.60;1.00;;;6.00;97.40;;;;;;3498574;41;20061;-84
2021/04/15 21:16:26;;;;;;;2.25;0.98;;;5.80;98.40;;;;;;3504826;41;20068;-84
2021/04/15 21:19:51;;;;;;;6.03;0.90;;;5.70;98.80;;;;;;3499403;41;20060;-86
2021/04/15 21:22:37;;;;;;;3.70;1.05;;;5.70;99.10;;;;;;3508658;40;20035;-84
2021/04/15 21:28:06;;;;;;;3.15;1.30;;;5.70;99.40;;;;;;3502840;41;20069;-84
2021/04/15 21:30:43;;;;;;;5.75;1.10;;;5.60;99.30;;;;;;3507375;41;20064;-85
2021/04/15 21:33:36;;;;;;;5.00;1.15;;;5.70;99.00;;;;;;3506626;41;20061;-84
2021/04/15 21:36:14;;;;;;;2.88;1.15;;;5.80;99.10;;;;;;3514702;40;20068;-86